Time;durP1;ratioP1;P1;durP2;ratioP2;P2;SDS_P1;SDS_P2;PMS_P1;PMS_P2;Temp;Humidity;BMP_temperature;BMP_pressure;BME280_temperature;BME280_humidity;BME280_pressure;Samples;Min_cycle;Max_cycle;Signal;HPM_P1;HPM_P2
2022/07/13 00:01:45;;;;;;;3.85;1.40;;;19.40;99.90;;;;;;4997205;28;20116;-92
2022/07/13 00:04:12;;;;;;;5.63;1.50;;;19.40;99.90;;;;;;4996926;28;20543;-92
2022/07/13 00:06:37;;;;;;;3.72;1.50;;;19.40;99.90;;;;;;5029488;28;20132;-91
2022/07/13 00:09:03;;;;;;;4.82;1.80;;;19.40;99.90;;;;;;4997365;28;20128;-91
2022/07/13 00:11:29;;;;;;;3.95;1.83;;;19.40;99.90;;;;;;4996666;28;20041;-91
2022/07/13 00:13:55;;;;;;;3.15;1.70;;;19.30;99.90;;;;;;5014002;28;20203;-91
2022/07/13 00:16:21;;;;;;;2.80;1.52;;;19.30;99.90;;;;;;4996238;28;20044;-92
2022/07/13 00:18:47;;;;;;;9.70;2.28;;;19.20;99.90;;;;;;4997493;28;20041;-92
2022/07/13 00:21:13;;;;;;;4.25;1.58;;;19.20;99.90;;;;;;4996986;28;20041;-92
2022/07/13 00:23:39;;;;;;;5.90;1.55;;;19.20;99.90;;;;;;4996526;28;20535;-92
2022/07/13 00:26:04;;;;;;;4.13;1.50;;;19.20;99.90;;;;;;4996848;28;20104;-91
2022/07/13 00:28:30;;;;;;;5.72;2.10;;;19.20;99.90;;;;;;4996631;28;20041;-91
2022/07/13 00:30:56;;;;;;;6.10;1.70;;;19.20;99.90;;;;;;4996788;28;20042;-92
2022/07/13 00:33:21;;;;;;;3.65;1.77;;;19.30;99.90;;;;;;4996707;28;20097;-92
2022/07/13 00:35:47;;;;;;;5.03;1.85;;;19.20;99.90;;;;;;4996681;28;20045;-92
2022/07/13 00:38:13;;;;;;;3.33;1.67;;;19.30;99.90;;;;;;4996620;28;20234;-92
2022/07/13 00:40:38;;;;;;;9.95;2.10;;;19.30;99.90;;;;;;5029761;28;20068;-93
2022/07/13 00:43:04;;;;;;;2.97;1.80;;;19.30;99.90;;;;;;4996774;28;20088;-92
2022/07/13 00:45:30;;;;;;;7.28;2.35;;;19.30;99.90;;;;;;4996934;28;20059;-93
2022/07/13 00:47:57;;;;;;;3.85;2.00;;;19.30;99.90;;;;;;4999692;28;20060;-93
2022/07/13 00:50:23;;;;;;;4.78;1.90;;;19.40;99.90;;;;;;5000539;28;20186;-92
2022/07/13 00:52:49;;;;;;;4.95;2.08;;;19.40;99.90;;;;;;5000223;28;20485;-92
2022/07/13 00:55:16;;;;;;;2.70;1.85;;;19.30;99.90;;;;;;4999795;28;20057;-93
2022/07/13 00:57:41;;;;;;;5.07;1.75;;;19.30;99.90;;;;;;5033606;28;20113;-92
2022/07/13 01:00:10;;;;;;;7.50;2.22;;;19.30;99.90;;;;;;4999996;28;20132;-92
2022/07/13 01:02:41;;;;;;;4.28;2.50;;;19.40;99.90;;;;;;5017322;28;20065;-93
2022/07/13 01:05:09;;;;;;;5.93;2.38;;;19.40;99.90;;;;;;5000062;28;20056;-93
2022/07/13 01:07:35;;;;;;;6.78;2.40;;;19.40;99.90;;;;;;5016695;28;20072;-91
2022/07/13 01:10:05;;;;;;;5.80;2.70;;;19.50;99.90;;;;;;4999731;28;20042;-93
2022/07/13 01:12:31;;;;;;;4.45;2.60;;;19.50;99.90;;;;;;5000405;28;20049;-91
2022/07/13 01:14:58;;;;;;;4.57;2.30;;;19.50;99.90;;;;;;4999810;28;20048;-92
2022/07/13 01:17:26;;;;;;;4.35;2.67;;;19.50;99.90;;;;;;5000181;28;20137;-92
2022/07/13 01:19:52;;;;;;;6.20;2.72;;;19.50;99.90;;;;;;5032486;28;20060;-92
2022/07/13 01:22:24;;;;;;;4.65;2.55;;;19.50;99.90;;;;;;4999923;28;20056;-91
2022/07/13 01:24:50;;;;;;;6.22;3.08;;;19.50;99.90;;;;;;5016146;28;20071;-93
2022/07/13 01:27:16;;;;;;;6.30;2.67;;;19.50;99.90;;;;;;5010485;28;20119;-93
2022/07/13 01:29:42;;;;;;;4.70;2.75;;;19.50;99.90;;;;;;5019253;28;20052;-93
2022/07/13 01:32:08;;;;;;;5.90;2.72;;;19.50;99.90;;;;;;5019663;28;20048;-92
2022/07/13 01:34:34;;;;;;;7.30;2.90;;;19.50;99.90;;;;;;5019602;28;20092;-93
2022/07/13 01:37:00;;;;;;;6.13;3.33;;;19.50;99.90;;;;;;5019628;28;20502;-92
2022/07/13 01:39:26;;;;;;;6.18;2.58;;;19.50;99.90;;;;;;5019022;28;20041;-93
2022/07/13 01:41:52;;;;;;;9.05;3.45;;;19.50;99.90;;;;;;5018948;28;20083;-92
2022/07/13 01:44:18;;;;;;;8.20;3.70;;;19.50;99.90;;;;;;5052543;28;20052;-92
2022/07/13 01:46:44;;;;;;;5.68;3.55;;;19.50;99.90;;;;;;5019185;28;20045;-93
2022/07/13 01:49:10;;;;;;;8.35;3.67;;;19.50;99.90;;;;;;5019123;28;20309;-93
2022/07/13 01:51:37;;;;;;;6.03;4.10;;;19.50;99.90;;;;;;5018793;28;20131;-92
2022/07/13 01:54:03;;;;;;;8.82;4.00;;;19.50;99.90;;;;;;5018940;28;20041;-91
2022/07/13 01:56:28;;;;;;;5.50;3.80;;;19.60;99.90;;;;;;5018217;28;20045;-92
2022/07/13 01:58:54;;;;;;;8.13;4.15;;;19.50;99.90;;;;;;5051243;28;20136;-90
2022/07/13 02:01:20;;;;;;;9.40;4.60;;;19.60;99.90;;;;;;5034853;28;20033;-92
2022/07/13 02:03:46;;;;;;;7.07;4.10;;;19.60;99.90;;;;;;5052086;28;20106;-92
2022/07/13 02:06:12;;;;;;;7.28;4.82;;;19.60;99.90;;;;;;5034910;28;20056;-92
2022/07/13 02:08:38;;;;;;;7.30;4.55;;;19.60;99.90;;;;;;5019268;28;20135;-92
2022/07/13 02:11:04;;;;;;;9.27;4.78;;;19.60;99.90;;;;;;5051594;28;20053;-91
2022/07/13 02:13:29;;;;;;;12.13;4.97;;;19.60;99.90;;;;;;5018246;28;20049;-92
2022/07/13 02:15:55;;;;;;;9.10;4.90;;;19.70;99.90;;;;;;5015073;28;20514;-92
2022/07/13 02:18:21;;;;;;;7.50;5.03;;;19.70;99.90;;;;;;5014996;28;20057;-92
2022/07/13 02:20:47;;;;;;;7.63;5.35;;;19.60;99.90;;;;;;5015483;28;20038;-92
2022/07/13 02:23:13;;;;;;;6.72;4.97;;;19.60;99.90;;;;;;5015559;28;20507;-93
2022/07/13 02:25:38;;;;;;;8.00;5.28;;;19.60;99.90;;;;;;5014953;28;20129;-93
2022/07/13 02:28:06;;;;;;;11.23;5.30;;;19.70;99.90;;;;;;5014889;28;20056;-92
2022/07/13 02:30:32;;;;;;;8.40;5.43;;;19.70;99.90;;;;;;5014895;28;20060;-92
2022/07/13 02:32:58;;;;;;;7.82;5.00;;;19.70;99.90;;;;;;5015346;28;20045;-91
2022/07/13 02:35:24;;;;;;;10.02;5.30;;;19.70;99.90;;;;;;5014920;28;20206;-92
2022/07/13 02:37:50;;;;;;;7.15;5.22;;;19.80;99.90;;;;;;5015298;28;20490;-92
2022/07/13 02:40:15;;;;;;;10.00;5.78;;;19.80;99.90;;;;;;5014749;28;20463;-92
2022/07/13 02:42:41;;;;;;;11.07;6.03;;;19.80;99.90;;;;;;5014670;28;20124;-92
2022/07/13 02:45:08;;;;;;;12.10;6.65;;;19.80;99.90;;;;;;5014463;28;20137;-92
2022/07/13 02:47:34;;;;;;;8.88;5.65;;;19.80;99.90;;;;;;5015102;28;20049;-92
2022/07/13 02:50:00;;;;;;;11.23;6.15;;;19.90;99.90;;;;;;5014593;28;20095;-92
2022/07/13 02:52:25;;;;;;;8.32;6.25;;;19.90;99.90;;;;;;5014636;28;20041;-92
2022/07/13 02:54:51;;;;;;;9.13;5.60;;;19.90;99.90;;;;;;5014488;28;20164;-93
2022/07/13 02:57:17;;;;;;;8.15;5.50;;;19.90;99.90;;;;;;5014824;28;20105;-92
2022/07/13 02:59:43;;;;;;;10.13;5.50;;;19.90;99.90;;;;;;5031282;28;20136;-93
2022/07/13 03:02:09;;;;;;;7.85;4.97;;;19.90;99.90;;;;;;5014188;28;20392;-92
2022/07/13 03:04:35;;;;;;;6.40;4.97;;;19.90;99.90;;;;;;5014225;28;20144;-92
2022/07/13 03:07:01;;;;;;;10.52;5.28;;;19.90;99.90;;;;;;5014269;28;20041;-92
2022/07/13 03:09:27;;;;;;;7.95;5.32;;;19.90;99.90;;;;;;5014016;28;20049;-92
2022/07/13 03:11:53;;;;;;;8.05;5.20;;;19.90;99.90;;;;;;5014375;28;20045;-92
2022/07/13 03:14:19;;;;;;;12.43;5.25;;;19.90;99.90;;;;;;5014735;28;20198;-91
2022/07/13 03:16:49;;;;;;;8.73;5.30;;;19.90;99.90;;;;;;5014509;28;20065;-92
2022/07/13 03:19:14;;;;;;;7.03;5.25;;;19.90;99.90;;;;;;5013612;28;20045;-92
2022/07/13 03:21:40;;;;;;;8.02;5.78;;;19.90;99.90;;;;;;5014373;28;20060;-92
2022/07/13 03:24:06;;;;;;;6.68;5.20;;;19.90;99.90;;;;;;5013870;28;20049;-93
2022/07/13 03:26:31;;;;;;;8.88;5.82;;;19.90;99.90;;;;;;5014327;28;20128;-93
2022/07/13 03:28:57;;;;;;;5.90;5.10;;;19.90;99.90;;;;;;5014271;28;20112;-94
2022/07/13 03:31:23;;;;;;;10.23;5.28;;;19.90;99.90;;;;;;5013782;28;20049;-93
2022/07/13 03:33:49;;;;;;;6.97;5.00;;;19.90;99.90;;;;;;5014479;28;20045;-93
2022/07/13 03:36:15;;;;;;;8.02;5.05;;;19.90;99.90;;;;;;5013058;28;20401;-94
2022/07/13 03:38:41;;;;;;;8.10;4.93;;;19.90;99.90;;;;;;5016753;28;20052;-93
2022/07/13 03:41:07;;;;;;;7.00;5.18;;;19.90;99.90;;;;;;5033563;28;20076;-93
2022/07/13 03:43:33;;;;;;;9.85;5.68;;;19.90;99.90;;;;;;5050051;28;20041;-93
2022/07/13 03:45:58;;;;;;;7.68;4.70;;;19.90;99.90;;;;;;5034055;28;20572;-92
2022/07/13 03:48:24;;;;;;;9.95;5.00;;;19.80;99.90;;;;;;5016204;28;20052;-93
2022/07/13 03:50:50;;;;;;;7.03;4.82;;;19.90;99.90;;;;;;5050169;28;20043;-93
2022/07/13 03:53:15;;;;;;;9.25;5.00;;;19.90;99.90;;;;;;5033453;28;20076;-93
2022/07/13 03:55:43;;;;;;;7.70;4.82;;;19.90;99.90;;;;;;5032871;28;20064;-93
2022/07/13 03:58:10;;;;;;;6.63;4.45;;;19.90;99.90;;;;;;5050603;28;20583;-94
2022/07/13 04:00:37;;;;;;;5.80;4.50;;;19.90;99.90;;;;;;5016640;28;20084;-93
2022/07/13 04:03:03;;;;;;;7.95;4.47;;;19.90;99.90;;;;;;5016853;28;20045;-91
2022/07/13 04:05:28;;;;;;;7.82;4.35;;;19.90;99.90;;;;;;5016349;28;20036;-93
2022/07/13 04:07:54;;;;;;;9.00;4.50;;;19.90;99.90;;;;;;5017085;28;20045;-94
2022/07/13 04:10:21;;;;;;;7.32;4.60;;;19.90;99.90;;;;;;5016777;28;20083;-93
2022/07/13 04:12:48;;;;;;;8.13;4.15;;;19.90;99.90;;;;;;5016377;28;20128;-93
2022/07/13 04:15:14;;;;;;;6.65;4.72;;;19.90;99.90;;;;;;5016875;28;20061;-92
2022/07/13 04:17:40;;;;;;;9.63;4.40;;;19.90;99.90;;;;;;5031077;28;20041;-93
2022/07/13 04:20:07;;;;;;;6.97;4.18;;;19.90;99.90;;;;;;4996793;28;20132;-94
2022/07/13 04:22:33;;;;;;;9.18;4.78;;;19.90;99.90;;;;;;5012619;28;20084;-94
2022/07/13 04:24:59;;;;;;;11.68;4.43;;;19.80;99.90;;;;;;4996979;28;20195;-94
2022/07/13 04:27:25;;;;;;;8.10;4.63;;;19.80;99.90;;;;;;4996533;28;20041;-93
2022/07/13 04:29:50;;;;;;;8.45;4.88;;;19.80;99.90;;;;;;4996562;28;20037;-94
2022/07/13 04:32:16;;;;;;;8.90;4.28;;;19.80;99.90;;;;;;4997225;28;20413;-93
2022/07/13 04:34:42;;;;;;;9.13;5.30;;;19.90;99.90;;;;;;4997162;28;20429;-92
2022/07/13 04:37:07;;;;;;;15.27;5.15;;;19.90;99.90;;;;;;4996282;28;20476;-92
2022/07/13 04:39:33;;;;;;;8.38;4.88;;;19.90;99.90;;;;;;4996792;28;20049;-91
2022/07/13 04:42:00;;;;;;;7.85;4.60;;;19.90;99.90;;;;;;4996779;28;20041;-92
2022/07/13 04:44:27;;;;;;;8.00;4.20;;;19.90;99.90;;;;;;4996339;28;20512;-92
2022/07/13 04:46:53;;;;;;;11.43;4.35;;;19.90;99.90;;;;;;4996856;28;20080;-92
2022/07/13 04:49:19;;;;;;;9.85;4.30;;;20.00;99.90;;;;;;4998583;28;20045;-92
2022/07/13 04:51:48;;;;;;;8.18;4.13;;;20.00;99.90;;;;;;5049233;28;20123;-92
2022/07/13 04:54:16;;;;;;;8.98;3.97;;;20.00;99.90;;;;;;5016456;28;20614;-92
2022/07/13 04:56:41;;;;;;;7.22;4.07;;;20.00;99.90;;;;;;5015771;28;20083;-93
2022/07/13 04:59:07;;;;;;;6.18;4.30;;;20.10;99.90;;;;;;5032112;28;20045;-93
2022/07/13 05:01:33;;;;;;;7.43;3.97;;;20.10;99.90;;;;;;5049113;28;20041;-94
2022/07/13 05:03:59;;;;;;;9.30;4.60;;;20.10;99.90;;;;;;5049230;28;20131;-93
2022/07/13 05:06:25;;;;;;;5.75;4.30;;;20.10;99.90;;;;;;5032030;28;20072;-93
2022/07/13 05:08:51;;;;;;;9.82;4.25;;;20.20;99.90;;;;;;5016502;28;20049;-94
2022/07/13 05:11:17;;;;;;;6.88;4.20;;;20.20;99.90;;;;;;5015565;28;20064;-93
2022/07/13 05:13:43;;;;;;;9.18;3.60;;;20.20;99.90;;;;;;5049230;28;20045;-90
2022/07/13 05:16:08;;;;;;;9.93;4.50;;;20.20;99.90;;;;;;5048786;28;20044;-91
2022/07/13 05:18:34;;;;;;;7.80;3.70;;;20.10;99.90;;;;;;5016073;28;20110;-91
2022/07/13 05:21:01;;;;;;;7.40;4.15;;;20.10;99.90;;;;;;5049049;28;20045;-92
2022/07/13 05:23:26;;;;;;;11.60;4.30;;;20.10;99.90;;;;;;5015492;28;20400;-91
2022/07/13 05:25:52;;;;;;;6.68;4.03;;;20.10;99.90;;;;;;5016099;28;20037;-89
2022/07/13 05:28:18;;;;;;;7.57;3.90;;;20.00;99.90;;;;;;5032490;28;20049;-90
2022/07/13 05:30:43;;;;;;;6.30;4.28;;;20.00;99.90;;;;;;5015522;28;20068;-89
2022/07/13 05:33:09;;;;;;;9.35;4.90;;;20.00;99.90;;;;;;5033836;28;20059;-90
2022/07/13 05:35:35;;;;;;;6.80;4.50;;;20.00;99.90;;;;;;5035147;28;20098;-89
2022/07/13 05:38:00;;;;;;;9.57;5.03;;;20.00;99.90;;;;;;5053238;28;20057;-91
2022/07/13 05:40:26;;;;;;;14.05;4.97;;;20.00;99.90;;;;;;5018941;28;20037;-90
2022/07/13 05:42:52;;;;;;;9.98;4.90;;;20.00;99.90;;;;;;5015942;28;20037;-88
2022/07/13 05:45:19;;;;;;;7.80;5.55;;;20.10;99.90;;;;;;5015912;28;20485;-87
2022/07/13 05:47:46;;;;;;;8.85;5.32;;;20.10;99.90;;;;;;5015688;28;20048;-89
2022/07/13 05:50:13;;;;;;;7.55;5.38;;;20.10;99.90;;;;;;5015346;28;20052;-89
2022/07/13 05:52:40;;;;;;;6.88;5.25;;;20.10;99.90;;;;;;5015528;28;20497;-90
2022/07/13 05:55:06;;;;;;;10.30;5.53;;;20.10;99.90;;;;;;5015843;28;20137;-91
2022/07/13 05:57:32;;;;;;;10.52;5.18;;;20.10;99.90;;;;;;5015803;28;20058;-90
2022/07/13 05:59:58;;;;;;;12.05;5.75;;;20.10;99.90;;;;;;5016269;28;20049;-89
2022/07/13 06:02:23;;;;;;;10.48;6.03;;;20.10;99.90;;;;;;5016200;28;20929;-90
2022/07/13 06:04:49;;;;;;;13.57;6.10;;;20.20;99.90;;;;;;5012441;28;20078;-89
2022/07/13 06:07:15;;;;;;;7.32;5.80;;;20.20;99.90;;;;;;5028492;28;20140;-90
2022/07/13 06:09:40;;;;;;;14.60;7.10;;;20.30;99.90;;;;;;5014839;28;20477;-89
2022/07/13 06:12:07;;;;;;;16.25;7.05;;;20.30;99.90;;;;;;5031216;28;20049;-90
2022/07/13 06:14:33;;;;;;;11.55;7.30;;;20.40;99.90;;;;;;4998688;28;20045;-90
2022/07/13 06:16:58;;;;;;;11.13;7.20;;;20.40;99.90;;;;;;5006831;28;20342;-90
2022/07/13 06:19:24;;;;;;;12.80;7.43;;;20.50;99.90;;;;;;5014587;28;20478;-90
2022/07/13 06:21:50;;;;;;;11.40;7.55;;;20.50;99.90;;;;;;4997934;28;20079;-90
2022/07/13 06:24:16;;;;;;;13.82;7.60;;;20.60;99.90;;;;;;5013724;28;20053;-91
2022/07/13 06:26:41;;;;;;;14.55;7.57;;;20.70;99.90;;;;;;5014496;28;20088;-89
2022/07/13 06:29:07;;;;;;;15.38;8.07;;;20.70;99.90;;;;;;5014407;28;20540;-91
2022/07/13 06:31:33;;;;;;;12.68;8.23;;;20.90;99.90;;;;;;5014165;28;20047;-90
2022/07/13 06:33:59;;;;;;;13.98;7.97;;;21.00;99.90;;;;;;5014642;28;20077;-90
2022/07/13 06:36:25;;;;;;;10.32;7.70;;;21.10;99.90;;;;;;4997167;28;20111;-94
2022/07/13 06:38:51;;;;;;;14.82;7.90;;;21.20;99.90;;;;;;5014294;28;20400;-94
2022/07/13 06:41:22;;;;;;;17.67;8.02;;;21.20;99.90;;;;;;5014668;28;20053;-94
2022/07/13 06:43:47;;;;;;;15.70;7.75;;;21.40;99.90;;;;;;5014199;28;20136;-94
2022/07/13 06:46:13;;;;;;;11.68;7.57;;;21.50;99.90;;;;;;5013870;28;20142;-94
2022/07/13 06:48:39;;;;;;;14.88;7.78;;;21.50;99.90;;;;;;5014424;28;20132;-94
2022/07/13 06:51:05;;;;;;;14.93;7.65;;;21.60;99.90;;;;;;5017432;28;20077;-94
2022/07/13 06:53:31;;;;;;;15.32;7.50;;;21.60;99.90;;;;;;5033647;28;20475;-96
2022/07/13 06:55:56;;;;;;;12.63;7.57;;;21.60;99.90;;;;;;5015903;28;20067;-93
2022/07/13 06:58:22;;;;;;;12.18;7.80;;;21.70;99.90;;;;;;5029979;28;20421;-92
2022/07/13 07:00:48;;;;;;;10.60;6.75;;;21.80;99.90;;;;;;5047971;28;20092;-91
2022/07/13 07:03:14;;;;;;;11.70;6.88;;;21.90;99.90;;;;;;4995979;28;20084;-90
2022/07/13 07:05:40;;;;;;;15.23;7.90;;;22.10;99.90;;;;;;4996404;28;20045;-91
2022/07/13 07:08:07;;;;;;;17.42;7.70;;;22.20;99.90;;;;;;4997851;28;20477;-92
2022/07/13 07:10:33;;;;;;;11.50;7.38;;;22.30;99.90;;;;;;4997133;28;20041;-94
2022/07/13 07:12:58;;;;;;;13.18;7.47;;;22.40;99.90;;;;;;4997392;28;20107;-88
2022/07/13 07:15:24;;;;;;;12.82;7.40;;;22.50;99.90;;;;;;4997498;28;20049;-93
2022/07/13 07:17:50;;;;;;;13.82;7.55;;;22.60;99.90;;;;;;4997574;28;20057;-94
2022/07/13 07:20:17;;;;;;;12.50;7.30;;;22.70;99.90;;;;;;4997363;28;20470;-90
2022/07/13 07:22:45;;;;;;;13.50;7.63;;;22.80;99.90;;;;;;4996920;28;20072;-91
2022/07/13 07:25:12;;;;;;;19.83;8.55;;;22.90;99.90;;;;;;4997592;28;20049;-90
2022/07/13 07:27:41;;;;;;;15.15;7.78;;;23.00;99.90;;;;;;4996451;28;20477;-91
2022/07/13 07:30:08;;;;;;;14.35;7.53;;;23.20;99.90;;;;;;4996579;28;20108;-90
2022/07/13 07:32:33;;;;;;;14.73;7.20;;;23.20;99.90;;;;;;4996972;28;20044;-91
2022/07/13 07:34:59;;;;;;;11.48;6.38;;;23.30;99.90;;;;;;4996960;28;20124;-91
2022/07/13 07:37:25;;;;;;;20.23;6.60;;;23.20;99.90;;;;;;4997329;28;20140;-92
2022/07/13 07:39:51;;;;;;;11.05;6.45;;;23.20;99.90;;;;;;4993212;28;20572;-91
2022/07/13 07:42:18;;;;;;;17.05;6.55;;;23.20;99.90;;;;;;4993887;28;20446;-92
2022/07/13 07:44:44;;;;;;;11.48;6.25;;;23.20;99.90;;;;;;4993894;28;20050;-92
2022/07/13 07:47:10;;;;;;;14.45;6.43;;;23.30;99.90;;;;;;4993643;28;20050;-93
2022/07/13 07:49:36;;;;;;;13.35;6.22;;;23.30;99.90;;;;;;4993749;28;20082;-92
2022/07/13 07:52:02;;;;;;;11.27;6.88;;;23.40;99.90;;;;;;4976984;28;20042;-89
2022/07/13 07:54:28;;;;;;;11.73;6.28;;;23.50;99.90;;;;;;4993054;28;20409;-88
2022/07/13 07:56:53;;;;;;;15.52;6.35;;;23.60;99.90;;;;;;5001260;28;20295;-92
2022/07/13 07:59:19;;;;;;;12.70;6.15;;;23.70;99.90;;;;;;4997284;28;20095;-90
2022/07/13 08:01:45;;;;;;;12.50;5.60;;;23.80;99.90;;;;;;4996953;28;20049;-90
2022/07/13 08:04:11;;;;;;;16.48;6.85;;;24.00;99.90;;;;;;4994543;28;20052;-90
2022/07/13 08:06:38;;;;;;;11.30;6.65;;;24.00;99.90;;;;;;4995746;28;20063;-90
2022/07/13 08:09:05;;;;;;;12.05;7.38;;;24.00;99.90;;;;;;4996704;28;20049;-89
2022/07/13 08:11:30;;;;;;;13.13;6.80;;;24.10;99.90;;;;;;4996881;28;20123;-92
2022/07/13 08:13:56;;;;;;;10.35;6.72;;;24.10;99.90;;;;;;4996881;28;20799;-93
2022/07/13 08:16:23;;;;;;;11.43;6.55;;;24.20;99.90;;;;;;5010519;28;20088;-91
2022/07/13 08:18:49;;;;;;;14.15;7.10;;;24.30;99.90;;;;;;5014816;28;20048;-91
2022/07/13 08:21:15;;;;;;;10.40;7.28;;;24.40;99.90;;;;;;5016137;28;20045;-89
2022/07/13 08:23:51;;;;;;;13.10;7.70;;;24.40;99.90;;;;;;5020683;28;20070;-95
2022/07/13 08:26:24;;;;;;;12.15;7.35;;;24.50;99.90;;;;;;5035752;28;20037;-92
2022/07/13 08:28:51;;;;;;;13.88;7.68;;;24.60;99.90;;;;;;5035791;28;20071;-92
2022/07/13 08:31:20;;;;;;;19.17;8.32;;;24.60;99.90;;;;;;5036399;28;20392;-93
2022/07/13 08:39:14;;;;;;;12.00;5.90;;;24.70;99.90;;;;;;5051723;28;20135;-90
2022/07/13 08:41:40;;;;;;;10.95;5.72;;;24.80;99.90;;;;;;5031548;28;20697;-89
2022/07/13 08:44:06;;;;;;;13.05;5.82;;;24.80;99.90;;;;;;5014494;28;20049;-90
2022/07/13 08:46:32;;;;;;;13.95;5.72;;;24.80;99.90;;;;;;5015246;28;20489;-90
2022/07/13 08:48:59;;;;;;;12.45;6.00;;;24.90;99.90;;;;;;5016590;28;20395;-91
2022/07/13 08:51:26;;;;;;;13.98;6.50;;;24.90;99.90;;;;;;5022553;28;20040;-91
2022/07/13 08:53:54;;;;;;;11.02;5.43;;;25.00;99.90;;;;;;5016083;28;20037;-90
2022/07/13 08:56:20;;;;;;;11.52;5.45;;;25.10;99.90;;;;;;5033016;28;20053;-93
2022/07/13 08:58:46;;;;;;;11.90;4.90;;;25.20;99.90;;;;;;5038900;28;20044;-95
2022/07/13 09:01:14;;;;;;;10.02;5.70;;;25.30;99.90;;;;;;5036441;28;20049;-95
2022/07/13 09:03:41;;;;;;;16.42;5.78;;;25.40;99.90;;;;;;5036732;28;20123;-95
2022/07/13 09:06:07;;;;;;;11.93;4.80;;;25.40;99.90;;;;;;5036620;28;20044;-96
2022/07/13 09:08:43;;;;;;;11.50;4.60;;;25.40;99.90;;;;;;5038374;28;20036;-95
2022/07/13 09:11:10;;;;;;;11.07;3.15;;;25.50;99.90;;;;;;5040434;28;20037;-95
2022/07/13 09:13:43;;;;;;;8.15;2.60;;;25.60;99.90;;;;;;5040087;28;20510;-96
2022/07/13 09:16:15;;;;;;;7.47;3.08;;;25.60;99.90;;;;;;5040256;28;20044;-92
2022/07/13 09:19:15;;;;;;;6.15;3.08;;;25.70;99.90;;;;;;5040730;28;20041;-94
2022/07/13 09:21:41;;;;;;;7.30;3.42;;;25.80;99.90;;;;;;5039357;28;20045;-94
2022/07/13 09:24:07;;;;;;;8.77;3.30;;;25.80;99.90;;;;;;5040143;28;20107;-95
2022/07/13 09:26:43;;;;;;;11.27;3.28;;;25.90;99.90;;;;;;5039761;28;20091;-95
2022/07/13 09:29:11;;;;;;;16.17;4.22;;;25.90;99.90;;;;;;5040596;28;20083;-96
2022/07/13 09:31:52;;;;;;;8.88;4.28;;;25.90;99.90;;;;;;5039989;28;20041;-94
2022/07/13 09:34:19;;;;;;;16.70;4.80;;;26.00;99.90;;;;;;5039426;28;20036;-95
2022/07/13 09:36:45;;;;;;;8.57;3.80;;;26.00;99.90;;;;;;5039895;28;20083;-94
2022/07/13 09:39:11;;;;;;;11.70;4.35;;;26.00;99.90;;;;;;5030746;28;20073;-94
2022/07/13 09:41:37;;;;;;;8.40;3.47;;;26.10;99.90;;;;;;5033520;28;20104;-94
2022/07/13 09:46:51;;;;;;;8.70;2.95;;;26.10;99.90;;;;;;5016008;28;20493;-95
2022/07/13 09:49:17;;;;;;;5.70;2.97;;;26.10;99.90;;;;;;5000441;28;20053;-94
2022/07/13 09:51:44;;;;;;;6.10;3.00;;;26.20;99.90;;;;;;5002950;28;20038;-94
2022/07/13 09:54:12;;;;;;;7.63;3.00;;;26.30;99.90;;;;;;5003260;28;20046;-93
2022/07/13 09:56:46;;;;;;;6.53;2.90;;;26.30;99.90;;;;;;5015771;28;20066;-95
2022/07/13 09:59:13;;;;;;;5.95;3.15;;;26.30;99.90;;;;;;5019848;28;20041;-95
2022/07/13 10:01:39;;;;;;;10.43;2.90;;;26.30;99.90;;;;;;5019038;28;20095;-95
2022/07/13 10:04:08;;;;;;;11.68;3.08;;;26.30;99.90;;;;;;5000554;28;20073;-95
2022/07/13 10:06:34;;;;;;;9.30;2.28;;;26.30;99.90;;;;;;4999164;28;20038;-95
2022/07/13 10:09:01;;;;;;;8.88;4.07;;;26.40;99.90;;;;;;4999337;28;20045;-94
2022/07/13 10:11:29;;;;;;;11.75;3.05;;;26.50;99.90;;;;;;4999021;28;20042;-95
2022/07/13 10:13:57;;;;;;;7.50;3.60;;;26.50;99.90;;;;;;5000269;28;20089;-92
2022/07/13 10:16:23;;;;;;;9.32;3.20;;;26.50;99.90;;;;;;5001015;28;20052;-94
2022/07/13 10:18:51;;;;;;;8.02;3.00;;;26.50;99.90;;;;;;4998868;28;20049;-94
2022/07/13 10:21:33;;;;;;;11.88;3.30;;;26.50;99.90;;;;;;4998608;28;20080;-94
2022/07/13 10:23:59;;;;;;;8.73;2.80;;;26.50;99.90;;;;;;4999689;28;20091;-94
2022/07/13 10:26:25;;;;;;;8.25;3.00;;;26.50;99.90;;;;;;4998324;28;20080;-93
2022/07/13 10:29:09;;;;;;;5.25;2.40;;;26.60;99.90;;;;;;4999491;28;20041;-94
2022/07/13 10:31:36;;;;;;;5.20;1.98;;;26.60;99.90;;;;;;4995463;28;20038;-93
2022/07/13 10:34:04;;;;;;;4.13;1.30;;;26.60;99.90;;;;;;4998369;28;20481;-96
2022/07/13 10:36:56;;;;;;;5.25;1.80;;;26.60;99.90;;;;;;4996848;28;20049;-94
2022/07/13 10:39:25;;;;;;;2.22;1.10;;;26.60;99.90;;;;;;4998052;28;20107;-93
2022/07/13 10:42:01;;;;;;;5.15;1.35;;;26.60;99.90;;;;;;4998419;28;20037;-94
2022/07/13 10:44:36;;;;;;;4.10;1.20;;;26.70;99.90;;;;;;4997593;28;20773;-92
2022/07/13 10:47:04;;;;;;;3.40;1.10;;;26.70;99.90;;;;;;4998984;28;20055;-94
2022/07/13 10:49:30;;;;;;;6.88;1.33;;;26.70;99.90;;;;;;4997545;28;20045;-93
2022/07/13 10:52:16;;;;;;;3.42;1.15;;;26.70;99.90;;;;;;4998131;28;20132;-94
2022/07/13 10:55:02;;;;;;;7.13;1.55;;;26.80;99.90;;;;;;4997647;28;20081;-93
2022/07/13 10:57:29;;;;;;;6.28;1.88;;;26.90;99.90;;;;;;5008437;28;20496;-95
2022/07/13 11:00:01;;;;;;;3.85;1.60;;;26.90;99.90;;;;;;5017804;28;20068;-93
2022/07/13 11:02:43;;;;;;;4.30;1.60;;;26.90;99.90;;;;;;5017203;28;20072;-96
2022/07/13 11:05:09;;;;;;;3.50;1.52;;;26.90;99.90;;;;;;5017125;28;20139;-94
2022/07/13 11:07:40;;;;;;;6.80;1.45;;;26.90;99.90;;;;;;5015339;28;20080;-95
2022/07/13 11:10:29;;;;;;;5.57;1.33;;;26.80;99.90;;;;;;5014717;28;20466;-94
2022/07/13 11:13:09;;;;;;;3.42;1.10;;;26.90;99.90;;;;;;5017359;28;20049;-95
2022/07/13 11:15:47;;;;;;;5.03;1.40;;;27.00;99.90;;;;;;5024953;28;20047;-95
2022/07/13 11:18:22;;;;;;;3.95;1.35;;;27.00;99.90;;;;;;5029895;28;20484;-95
2022/07/13 11:21:12;;;;;;;3.83;1.40;;;27.00;99.60;;;;;;4997441;28;20481;-94
2022/07/13 11:26:46;;;;;;;8.40;1.77;;;27.00;99.20;;;;;;5030448;28;20440;-96
2022/07/13 11:29:22;;;;;;;4.22;1.90;;;26.90;99.90;;;;;;5037346;28;20048;-96
2022/07/13 11:32:00;;;;;;;4.65;1.73;;;26.80;99.20;;;;;;5036402;28;20048;-94
2022/07/13 11:34:26;;;;;;;6.07;2.00;;;26.70;99.90;;;;;;5036803;28;20076;-94
2022/07/13 11:36:54;;;;;;;6.03;2.40;;;26.60;99.90;;;;;;5035009;28;20037;-96
2022/07/13 11:39:30;;;;;;;7.68;2.25;;;26.50;99.90;;;;;;5029529;28;20052;-95
2022/07/13 11:41:58;;;;;;;5.63;2.00;;;26.20;99.90;;;;;;5017242;28;20379;-94
2022/07/13 11:44:29;;;;;;;7.05;2.10;;;26.00;99.90;;;;;;5016326;28;20049;-94
2022/07/13 11:46:58;;;;;;;5.05;2.08;;;26.00;99.90;;;;;;5017277;28;20095;-96
2022/07/13 11:49:24;;;;;;;5.43;2.38;;;26.00;99.90;;;;;;5016474;28;20134;-96
2022/07/13 11:51:51;;;;;;;7.38;1.33;;;25.80;99.90;;;;;;5016752;28;20394;-95
2022/07/13 11:54:20;;;;;;;7.30;1.55;;;25.80;99.90;;;;;;5016662;28;20475;-96
2022/07/13 11:56:51;;;;;;;4.10;1.17;;;25.90;99.90;;;;;;5016669;28;20057;-94
2022/07/13 11:59:35;;;;;;;5.72;1.42;;;26.00;99.90;;;;;;5016871;28;20064;-96
2022/07/13 12:02:02;;;;;;;4.72;1.80;;;25.90;99.90;;;;;;5016896;28;20048;-94
2022/07/13 12:04:28;;;;;;;12.70;1.92;;;26.00;99.90;;;;;;5016405;28;20563;-94
2022/07/13 12:07:13;;;;;;;7.25;1.30;;;26.00;99.90;;;;;;5016066;28;20041;-95
2022/07/13 12:09:50;;;;;;;5.93;1.65;;;26.10;99.90;;;;;;5015913;28;20045;-94
2022/07/13 12:12:17;;;;;;;6.78;1.35;;;26.10;99.90;;;;;;5016819;28;20037;-96
2022/07/13 12:14:43;;;;;;;8.02;1.73;;;26.10;99.90;;;;;;5016682;28;20047;-95
2022/07/13 12:17:09;;;;;;;6.07;1.30;;;25.90;99.90;;;;;;5005621;28;20076;-94
2022/07/13 12:19:35;;;;;;;7.38;1.60;;;25.90;99.90;;;;;;4997874;28;20438;-94
2022/07/13 12:22:01;;;;;;;5.45;1.70;;;26.10;99.90;;;;;;4998208;28;20439;-93
2022/07/13 12:24:29;;;;;;;9.02;1.70;;;26.00;99.90;;;;;;4996407;28;20099;-95
2022/07/13 12:26:55;;;;;;;16.05;1.45;;;26.00;99.90;;;;;;4997845;28;20045;-91
2022/07/13 12:29:28;;;;;;;5.43;1.52;;;26.00;99.90;;;;;;4997957;28;20042;-96
2022/07/13 12:31:54;;;;;;;6.75;1.70;;;26.00;99.90;;;;;;5030365;28;20487;-94
2022/07/13 12:34:26;;;;;;;11.00;1.80;;;25.90;99.90;;;;;;4998576;28;20038;-95
2022/07/13 12:36:52;;;;;;;10.10;2.22;;;25.70;99.90;;;;;;5014885;28;20049;-96
2022/07/13 12:39:35;;;;;;;9.75;2.00;;;25.40;99.90;;;;;;4998953;28;20045;-95
2022/07/13 12:42:02;;;;;;;11.48;2.42;;;25.40;99.90;;;;;;4998178;28;20038;-96
2022/07/13 12:44:30;;;;;;;10.13;2.15;;;25.30;99.90;;;;;;5002333;28;20128;-95
2022/07/13 12:46:59;;;;;;;10.25;2.22;;;25.10;99.90;;;;;;5002677;28;20044;-96
2022/07/13 12:49:30;;;;;;;9.57;2.00;;;25.10;99.90;;;;;;5002163;28;20282;-95
2022/07/13 12:52:05;;;;;;;13.32;2.10;;;24.90;99.90;;;;;;5017879;28;20059;-94
2022/07/13 12:54:46;;;;;;;10.77;2.15;;;24.90;99.90;;;;;;5001741;28;20507;-96
2022/07/13 12:57:15;;;;;;;11.52;2.80;;;25.00;99.90;;;;;;5002144;28;20092;-93